Terminal Aerodrome Forecast
Issued by NWS

Home | Current Version | Previous Version | Text Only | Print | Product List | Glossary On
Versions: 1 2 3 4 5 6 7 8 9 10 11 12 13 14 15 16 17 18 19 20 21 22 23 24 25 26 27 28 29 30 31 32 33 34 35 36 37 38 39 40 41 42
000
FTUS45 KBOU 192320
TAFBJC
TAF
KBJC 192320Z 2000/2024 30017G24KT P6SM BKN080 BKN220
     FM200200 26009KT P6SM SCT140 BKN220
     FM201500 22008KT P6SM SCT140
     FM201800 11007KT P6SM FEW080 SCT140
     FM202200 09008KT P6SM VCTS SCT080CB BKN120
      TEMPO 2022/2024 VRB20G35KT -TSRA=

USA.gov is the U.S. government's official web portal to all federal, state and local government web resources and services.